﻿<?xml version="1.0" encoding="utf-8"?><gpx creator="Garmin Desktop App" version="1.1" xsi:schemaLocation="http://www.topografix.com/GPX/1/1 http://www.topografix.com/GPX/1/1/gpx.xsd http://www.garmin.com/xmlschemas/WaypointExtension/v1 http://www8.garmin.com/xmlschemas/WaypointExtensionv1.xsd http://www.garmin.com/xmlschemas/TrackPointExtension/v1 http://www.garmin.com/xmlschemas/TrackPointExtensionv1.xsd http://www.garmin.com/xmlschemas/GpxExtensions/v3 http://www8.garmin.com/xmlschemas/GpxExtensionsv3.xsd http://www.garmin.com/xmlschemas/ActivityExtension/v1 http://www8.garmin.com/xmlschemas/ActivityExtensionv1.xsd http://www.garmin.com/xmlschemas/AdventuresExtensions/v1 http://www8.garmin.com/xmlschemas/AdventuresExtensionv1.xsd http://www.garmin.com/xmlschemas/PressureExtension/v1 http://www.garmin.com/xmlschemas/PressureExtensionv1.xsd http://www.garmin.com/xmlschemas/TripExtensions/v1 http://www.garmin.com/xmlschemas/TripExtensionsv1.xsd http://www.garmin.com/xmlschemas/TripMetaDataExtensions/v1 http://www.garmin.com/xmlschemas/TripMetaDataExtensionsv1.xsd http://www.garmin.com/xmlschemas/ViaPointTransportationModeExtensions/v1 http://www.garmin.com/xmlschemas/ViaPointTransportationModeExtensionsv1.xsd http://www.garmin.com/xmlschemas/CreationTimeExtension/v1 http://www.garmin.com/xmlschemas/CreationTimeExtensionsv1.xsd http://www.garmin.com/xmlschemas/AccelerationExtension/v1 http://www.garmin.com/xmlschemas/AccelerationExtensionv1.xsd http://www.garmin.com/xmlschemas/PowerExtension/v1 http://www.garmin.com/xmlschemas/PowerExtensionv1.xsd http://www.garmin.com/xmlschemas/VideoExtension/v1 http://www.garmin.com/xmlschemas/VideoExtensionv1.xsd" xmlns="http://www.topografix.com/GPX/1/1" xmlns:xsi="http://www.w3.org/2001/XMLSchema-instance" xmlns:wptx1="http://www.garmin.com/xmlschemas/WaypointExtension/v1" xmlns:gpxtrx="http://www.garmin.com/xmlschemas/GpxExtensions/v3" xmlns:gpxtpx="http://www.garmin.com/xmlschemas/TrackPointExtension/v1" xmlns:gpxx="http://www.garmin.com/xmlschemas/GpxExtensions/v3" xmlns:trp="http://www.garmin.com/xmlschemas/TripExtensions/v1" xmlns:adv="http://www.garmin.com/xmlschemas/AdventuresExtensions/v1" xmlns:prs="http://www.garmin.com/xmlschemas/PressureExtension/v1" xmlns:tmd="http://www.garmin.com/xmlschemas/TripMetaDataExtensions/v1" xmlns:vptm="http://www.garmin.com/xmlschemas/ViaPointTransportationModeExtensions/v1" xmlns:ctx="http://www.garmin.com/xmlschemas/CreationTimeExtension/v1" xmlns:gpxacc="http://www.garmin.com/xmlschemas/AccelerationExtension/v1" xmlns:gpxpx="http://www.garmin.com/xmlschemas/PowerExtension/v1" xmlns:vidx1="http://www.garmin.com/xmlschemas/VideoExtension/v1">

  <metadata>
    <link href="http://www.garmin.com">
      <text>Garmin International</text>
    </link>
    <time>2023-03-13T09:44:16Z</time>
    <bounds maxlat="51.16902600042522" maxlon="5.084158033132553" minlat="51.13331900909543" minlon="5.034289984032512" />
  </metadata>

  <trk>
    <name>geel Belshof luihoeve 18 km</name>
    <extensions>
      <gpxx:TrackExtension>
        <gpxx:DisplayColor>Blue</gpxx:DisplayColor>
      </gpxx:TrackExtension>
    </extensions>
    <trkseg>
      <trkpt lat="51.16470898501575" lon="5.074207959696651">
        <ele>29.091999999999999</ele>
        <time>2020-09-13T11:43:53Z</time>
      </trkpt>
      <trkpt lat="51.163120027631521" lon="5.073880981653929">
        <ele>29.273</ele>
        <time>2020-09-13T11:46:28Z</time>
      </trkpt>
      <trkpt lat="51.16298901848495" lon="5.074659995734692">
        <ele>29.219999999999999</ele>
        <time>2020-09-13T11:47:27Z</time>
      </trkpt>
      <trkpt lat="51.160409990698099" lon="5.075146984308958">
        <ele>30.007999999999999</ele>
        <time>2020-09-13T11:51:28Z</time>
      </trkpt>
      <trkpt lat="51.159009961411357" lon="5.075568007305265">
        <ele>29.794</ele>
        <time>2020-09-13T11:53:33Z</time>
      </trkpt>
      <trkpt lat="51.156651964411139" lon="5.075912000611424">
        <ele>31.574999999999999</ele>
        <time>2020-09-13T11:54:54Z</time>
      </trkpt>
      <trkpt lat="51.155602969229221" lon="5.076247025281191">
        <ele>32.066000000000003</ele>
        <time>2020-09-13T11:56:11Z</time>
      </trkpt>
      <trkpt lat="51.155479000881314" lon="5.076020965352655">
        <ele>31.41</ele>
        <time>2020-09-13T11:56:26Z</time>
      </trkpt>
      <trkpt lat="51.155430972576141" lon="5.072565022855997">
        <ele>30.199000000000002</ele>
        <time>2020-09-13T11:59:30Z</time>
      </trkpt>
      <trkpt lat="51.153732966631651" lon="5.072555970400572">
        <ele>29.634</ele>
        <time>2020-09-13T12:01:55Z</time>
      </trkpt>
      <trkpt lat="51.153182024136186" lon="5.073865978047252">
        <ele>28.888000000000002</ele>
        <time>2020-09-13T12:03:19Z</time>
      </trkpt>
      <trkpt lat="51.152422958984971" lon="5.074681034311652">
        <ele>27.248999999999999</ele>
        <time>2020-09-13T12:04:37Z</time>
      </trkpt>
      <trkpt lat="51.143756993114948" lon="5.081081036478281">
        <ele>28.158999999999999</ele>
        <time>2020-09-13T12:18:33Z</time>
      </trkpt>
      <trkpt lat="51.144026974216104" lon="5.081775980070233">
        <ele>28.103000000000002</ele>
        <time>2020-09-13T12:19:22Z</time>
      </trkpt>
      <trkpt lat="51.14378297701478" lon="5.084158033132553">
        <ele>28.323</ele>
        <time>2020-09-13T12:21:30Z</time>
      </trkpt>
      <trkpt lat="51.14399797283113" lon="5.081536006182432">
        <ele>28.007999999999999</ele>
        <time>2020-09-13T12:24:16Z</time>
      </trkpt>
      <trkpt lat="51.142818974331021" lon="5.080343009904027">
        <ele>28.190000000000001</ele>
        <time>2020-09-13T12:26:06Z</time>
      </trkpt>
      <trkpt lat="51.142381019890308" lon="5.08024200797081">
        <ele>27.821000000000002</ele>
        <time>2020-09-13T12:26:43Z</time>
      </trkpt>
      <trkpt lat="51.142009031027555" lon="5.079824002459645">
        <ele>27.812000000000001</ele>
        <time>2020-09-13T12:27:20Z</time>
      </trkpt>
      <trkpt lat="51.141187017783523" lon="5.079356040805578">
        <ele>28.295999999999999</ele>
        <time>2020-09-13T12:28:29Z</time>
      </trkpt>
      <trkpt lat="51.138391988351941" lon="5.078618014231324">
        <ele>29.315000000000001</ele>
        <time>2020-09-13T12:32:36Z</time>
      </trkpt>
      <trkpt lat="51.138533977791667" lon="5.076018031686544">
        <ele>29.23</ele>
        <time>2020-09-13T12:34:49Z</time>
      </trkpt>
      <trkpt lat="51.138634979724884" lon="5.075847962871194">
        <ele>29.053999999999998</ele>
        <time>2020-09-13T12:35:00Z</time>
      </trkpt>
      <trkpt lat="51.139427991583943" lon="5.075669009238482">
        <ele>28.984999999999999</ele>
        <time>2020-09-13T12:36:10Z</time>
      </trkpt>
      <trkpt lat="51.139447018504143" lon="5.074452040717006">
        <ele>28.597000000000001</ele>
        <time>2020-09-13T12:37:15Z</time>
      </trkpt>
      <trkpt lat="51.139751030132174" lon="5.072583965957165">
        <ele>28.023</ele>
        <time>2020-09-13T12:38:53Z</time>
      </trkpt>
      <trkpt lat="51.140248998999596" lon="5.0727220159024">
        <ele>28.225000000000001</ele>
        <time>2020-09-13T12:39:34Z</time>
      </trkpt>
      <trkpt lat="51.140439016744494" lon="5.072617996484041">
        <ele>28.108000000000001</ele>
        <time>2020-09-13T12:39:50Z</time>
      </trkpt>
      <trkpt lat="51.141078975051641" lon="5.070870034396648">
        <ele>28.324000000000002</ele>
        <time>2020-09-13T12:41:33Z</time>
      </trkpt>
      <trkpt lat="51.141715999692678" lon="5.069955987855792">
        <ele>27.954999999999998</ele>
        <time>2020-09-13T12:42:44Z</time>
      </trkpt>
      <trkpt lat="51.142479004338384" lon="5.06954200565815">
        <ele>28.045999999999999</ele>
        <time>2020-09-13T12:43:51Z</time>
      </trkpt>
      <trkpt lat="51.142315976321697" lon="5.068449005484581">
        <ele>28.260000000000002</ele>
        <time>2020-09-13T12:44:59Z</time>
      </trkpt>
      <trkpt lat="51.14245000295341" lon="5.067933015525341">
        <ele>28.228999999999999</ele>
        <time>2020-09-13T12:45:28Z</time>
      </trkpt>
      <trkpt lat="51.142404992133379" lon="5.065280981361866">
        <ele>27.393999999999998</ele>
        <time>2020-09-13T12:47:52Z</time>
      </trkpt>
      <trkpt lat="51.142701040953398" lon="5.064726015552878">
        <ele>27.437999999999999</ele>
        <time>2020-09-13T12:48:33Z</time>
      </trkpt>
      <trkpt lat="51.142816040664911" lon="5.063878018409014">
        <ele>27.129000000000001</ele>
        <time>2020-09-13T12:49:18Z</time>
      </trkpt>
      <trkpt lat="51.143338987603784" lon="5.062959026545286">
        <ele>27.065999999999999</ele>
        <time>2020-09-13T12:50:27Z</time>
      </trkpt>
      <trkpt lat="51.143477959558368" lon="5.062099965289235">
        <ele>27.829000000000001</ele>
        <time>2020-09-13T12:51:15Z</time>
      </trkpt>
      <trkpt lat="51.143403025344014" lon="5.060378992930055">
        <ele>27.420999999999999</ele>
        <time>2020-09-13T12:52:53Z</time>
      </trkpt>
      <trkpt lat="51.143792029470205" lon="5.058863963931799">
        <ele>27.308</ele>
        <time>2020-09-13T12:54:17Z</time>
      </trkpt>
      <trkpt lat="51.143913986161351" lon="5.058698002249003">
        <ele>27.341000000000001</ele>
        <time>2020-09-13T12:54:32Z</time>
      </trkpt>
      <trkpt lat="51.144403992220759" lon="5.05873303860426">
        <ele>27.172000000000001</ele>
        <time>2020-09-13T12:55:11Z</time>
      </trkpt>
      <trkpt lat="51.144566014409065" lon="5.058548972010613">
        <ele>27.023</ele>
        <time>2020-09-13T12:55:30Z</time>
      </trkpt>
      <trkpt lat="51.144709009677172" lon="5.05746603012085">
        <ele>27.067</ele>
        <time>2020-09-13T12:56:33Z</time>
      </trkpt>
      <trkpt lat="51.144916964694858" lon="5.057126982137561">
        <ele>27.135999999999999</ele>
        <time>2020-09-13T12:56:54Z</time>
      </trkpt>
      <trkpt lat="51.146415984258056" lon="5.056972000747919">
        <ele>27.361000000000001</ele>
        <time>2020-09-13T12:58:56Z</time>
      </trkpt>
      <trkpt lat="51.147140013054013" lon="5.056663965806365">
        <ele>27.385000000000002</ele>
        <time>2020-09-13T12:59:59Z</time>
      </trkpt>
      <trkpt lat="51.148098986595869" lon="5.057537024840713">
        <ele>27.596</ele>
        <time>2020-09-13T13:01:32Z</time>
      </trkpt>
      <trkpt lat="51.14827299490571" lon="5.057314988225699">
        <ele>27.841999999999999</ele>
        <time>2020-09-13T13:01:56Z</time>
      </trkpt>
      <trkpt lat="51.148352036252618" lon="5.056104976683855">
        <ele>27.821999999999999</ele>
        <time>2020-09-13T13:03:03Z</time>
      </trkpt>
      <trkpt lat="51.148178027942777" lon="5.051748985424638">
        <ele>27.314</ele>
        <time>2020-09-13T13:07:03Z</time>
      </trkpt>
      <trkpt lat="51.148394029587507" lon="5.048005040735006">
        <ele>27.608000000000001</ele>
        <time>2020-09-13T13:10:29Z</time>
      </trkpt>
      <trkpt lat="51.148311970755458" lon="5.047917030751705">
        <ele>27.888999999999999</ele>
        <time>2020-09-13T13:10:53Z</time>
      </trkpt>
      <trkpt lat="51.1477330327034" lon="5.04844500683248">
        <ele>27.84</ele>
        <time>2020-09-13T13:11:49Z</time>
      </trkpt>
      <trkpt lat="51.147823976352811" lon="5.047987019643188">
        <ele>27.381</ele>
        <time>2020-09-13T13:12:23Z</time>
      </trkpt>
      <trkpt lat="51.14812295883894" lon="5.047658029943705">
        <ele>27.274999999999999</ele>
        <time>2020-09-13T13:12:53Z</time>
      </trkpt>
      <trkpt lat="51.148383971303701" lon="5.046846996992827">
        <ele>27.393999999999998</ele>
        <time>2020-09-13T13:13:43Z</time>
      </trkpt>
      <trkpt lat="51.148883029818535" lon="5.046051973477006">
        <ele>27.169</ele>
        <time>2020-09-13T13:14:46Z</time>
      </trkpt>
      <trkpt lat="51.149212019518018" lon="5.04498696886003">
        <ele>27.513000000000002</ele>
        <time>2020-09-13T13:15:53Z</time>
      </trkpt>
      <trkpt lat="51.149451993405819" lon="5.042146006599069">
        <ele>27.094000000000001</ele>
        <time>2020-09-13T13:18:26Z</time>
      </trkpt>
      <trkpt lat="51.14936800673604" lon="5.040364013984799">
        <ele>26.975999999999999</ele>
        <time>2020-09-13T13:20:05Z</time>
      </trkpt>
      <trkpt lat="51.14977695979178" lon="5.040095960721374">
        <ele>27.190000000000001</ele>
        <time>2020-09-13T13:20:44Z</time>
      </trkpt>
      <trkpt lat="51.149935964494944" lon="5.039818016812205">
        <ele>27.219000000000001</ele>
        <time>2020-09-13T13:21:07Z</time>
      </trkpt>
      <trkpt lat="51.14996999502182" lon="5.039358017966151">
        <ele>27.108000000000001</ele>
        <time>2020-09-13T13:21:31Z</time>
      </trkpt>
      <trkpt lat="51.149789029732347" lon="5.03864798694849">
        <ele>26.821999999999999</ele>
        <time>2020-09-13T13:22:03Z</time>
      </trkpt>
      <trkpt lat="51.150443991646171" lon="5.035656988620758">
        <ele>26.513000000000002</ele>
        <time>2020-09-13T13:24:06Z</time>
      </trkpt>
      <trkpt lat="51.150134028866887" lon="5.034463992342353">
        <ele>26.434000000000001</ele>
        <time>2020-09-13T13:25:09Z</time>
      </trkpt>
      <trkpt lat="51.149201961234212" lon="5.034289984032512">
        <ele>26.917999999999999</ele>
        <time>2020-09-13T13:26:02Z</time>
      </trkpt>
      <trkpt lat="51.147001963108778" lon="5.035631004720926">
        <ele>26.396999999999998</ele>
        <time>2020-09-13T13:27:40Z</time>
      </trkpt>
      <trkpt lat="51.146452026441693" lon="5.0356409791857">
        <ele>26.341999999999999</ele>
        <time>2020-09-13T13:28:03Z</time>
      </trkpt>
      <trkpt lat="51.145774014294147" lon="5.035289023071528">
        <ele>26.186</ele>
        <time>2020-09-13T13:28:52Z</time>
      </trkpt>
      <trkpt lat="51.145577961578965" lon="5.035358006134629">
        <ele>26.236999999999998</ele>
        <time>2020-09-13T13:29:06Z</time>
      </trkpt>
      <trkpt lat="51.145884990692139" lon="5.037206970155239">
        <ele>27.433</ele>
        <time>2020-09-13T13:30:08Z</time>
      </trkpt>
      <trkpt lat="51.145304962992668" lon="5.037765959277749">
        <ele>29.323</ele>
        <time>2020-09-13T13:30:33Z</time>
      </trkpt>
      <trkpt lat="51.144777992740273" lon="5.037839971482754">
        <ele>29.114999999999998</ele>
        <time>2020-09-13T13:30:55Z</time>
      </trkpt>
      <trkpt lat="51.144687971100211" lon="5.037385001778603">
        <ele>28.308</ele>
        <time>2020-09-13T13:31:19Z</time>
      </trkpt>
      <trkpt lat="51.144474986940622" lon="5.037799989804626">
        <ele>28.748000000000001</ele>
        <time>2020-09-13T13:32:33Z</time>
      </trkpt>
      <trkpt lat="51.144177010282874" lon="5.037863021716476">
        <ele>28.099</ele>
        <time>2020-09-13T13:33:00Z</time>
      </trkpt>
      <trkpt lat="51.143756993114948" lon="5.037793032824993">
        <ele>28.09</ele>
        <time>2020-09-13T13:33:36Z</time>
      </trkpt>
      <trkpt lat="51.142890974879265" lon="5.037330016493797">
        <ele>27.013999999999999</ele>
        <time>2020-09-13T13:34:36Z</time>
      </trkpt>
      <trkpt lat="51.142581012099981" lon="5.037324987351894">
        <ele>26.952999999999999</ele>
        <time>2020-09-13T13:34:49Z</time>
      </trkpt>
      <trkpt lat="51.140440022572875" lon="5.037906020879746">
        <ele>26.248000000000001</ele>
        <time>2020-09-13T13:36:30Z</time>
      </trkpt>
      <trkpt lat="51.139877010136843" lon="5.037837959825993">
        <ele>26.712</ele>
        <time>2020-09-13T13:36:57Z</time>
      </trkpt>
      <trkpt lat="51.138846036046743" lon="5.037993025034666">
        <ele>26.663</ele>
        <time>2020-09-13T13:38:17Z</time>
      </trkpt>
      <trkpt lat="51.137322038412094" lon="5.038491999730468">
        <ele>28.552</ele>
        <time>2020-09-13T13:39:09Z</time>
      </trkpt>
      <trkpt lat="51.136896992102265" lon="5.038501974195242">
        <ele>29.853000000000002</ele>
        <time>2020-09-13T13:39:21Z</time>
      </trkpt>
      <trkpt lat="51.135741965845227" lon="5.038007022812963">
        <ele>30.608000000000001</ele>
        <time>2020-09-13T13:40:20Z</time>
      </trkpt>
      <trkpt lat="51.134347971528769" lon="5.037024999037385">
        <ele>29.007999999999999</ele>
        <time>2020-09-13T13:42:29Z</time>
      </trkpt>
      <trkpt lat="51.134320981800556" lon="5.036582015454769">
        <ele>29.050000000000001</ele>
        <time>2020-09-13T13:45:57Z</time>
      </trkpt>
      <trkpt lat="51.134507982060313" lon="5.03654002211988">
        <ele>28.681000000000001</ele>
        <time>2020-09-13T13:58:52Z</time>
      </trkpt>
      <trkpt lat="51.13435098901391" lon="5.036980994045734">
        <ele>29.172000000000001</ele>
        <time>2020-09-13T14:01:04Z</time>
      </trkpt>
      <trkpt lat="51.135084992274642" lon="5.037406040355563">
        <ele>30.326000000000001</ele>
        <time>2020-09-13T14:02:13Z</time>
      </trkpt>
      <trkpt lat="51.135112987831235" lon="5.038126967847347">
        <ele>30.315000000000001</ele>
        <time>2020-09-13T14:02:49Z</time>
      </trkpt>
      <trkpt lat="51.134460037574172" lon="5.043919030576944">
        <ele>30.420000000000002</ele>
        <time>2020-09-13T14:07:59Z</time>
      </trkpt>
      <trkpt lat="51.133731985464692" lon="5.047184033319354">
        <ele>29.654</ele>
        <time>2020-09-13T14:11:01Z</time>
      </trkpt>
      <trkpt lat="51.13377196714282" lon="5.047093005850911">
        <ele>29.824999999999999</ele>
        <time>2020-09-13T14:11:12Z</time>
      </trkpt>
      <trkpt lat="51.13331900909543" lon="5.048080980777741">
        <ele>29.971</ele>
        <time>2020-09-13T14:12:12Z</time>
      </trkpt>
      <trkpt lat="51.133951004594564" lon="5.048174019902945">
        <ele>31.140999999999998</ele>
        <time>2020-09-13T14:13:11Z</time>
      </trkpt>
      <trkpt lat="51.13419902510941" lon="5.04837803542614">
        <ele>31.815000000000001</ele>
        <time>2020-09-13T14:13:33Z</time>
      </trkpt>
      <trkpt lat="51.13497301004827" lon="5.052060037851334">
        <ele>29.707999999999998</ele>
        <time>2020-09-13T14:16:49Z</time>
      </trkpt>
      <trkpt lat="51.136376978829503" lon="5.051376996561885">
        <ele>29.661999999999999</ele>
        <time>2020-09-13T14:18:47Z</time>
      </trkpt>
      <trkpt lat="51.13716596737504" lon="5.051456037908793">
        <ele>29.623000000000001</ele>
        <time>2020-09-13T14:19:31Z</time>
      </trkpt>
      <trkpt lat="51.138694994151592" lon="5.052594970911741">
        <ele>31.013999999999999</ele>
        <time>2020-09-13T14:20:27Z</time>
      </trkpt>
      <trkpt lat="51.140544964000583" lon="5.052968971431255">
        <ele>32.137999999999998</ele>
        <time>2020-09-13T14:21:19Z</time>
      </trkpt>
      <trkpt lat="51.142625017091632" lon="5.054057026281953">
        <ele>33.476999999999997</ele>
        <time>2020-09-13T14:24:19Z</time>
      </trkpt>
      <trkpt lat="51.143286013975739" lon="5.054150987416506">
        <ele>33.192</ele>
        <time>2020-09-13T14:25:14Z</time>
      </trkpt>
      <trkpt lat="51.143831005319953" lon="5.054820030927658">
        <ele>31.995999999999999</ele>
        <time>2020-09-13T14:26:14Z</time>
      </trkpt>
      <trkpt lat="51.144518991932273" lon="5.057022040709853">
        <ele>30.957000000000001</ele>
        <time>2020-09-13T14:27:30Z</time>
      </trkpt>
      <trkpt lat="51.144703980535269" lon="5.057241981849074">
        <ele>31.059000000000001</ele>
        <time>2020-09-13T14:27:42Z</time>
      </trkpt>
      <trkpt lat="51.144548999145627" lon="5.057250028476119">
        <ele>31.103000000000002</ele>
        <time>2020-09-13T14:27:59Z</time>
      </trkpt>
      <trkpt lat="51.145812990143895" lon="5.056905029341579">
        <ele>31.222999999999999</ele>
        <time>2020-09-13T14:30:21Z</time>
      </trkpt>
      <trkpt lat="51.146599967032671" lon="5.056911986321211">
        <ele>31.507999999999999</ele>
        <time>2020-09-13T14:31:23Z</time>
      </trkpt>
      <trkpt lat="51.14713498391211" lon="5.056491969153285">
        <ele>31.48</ele>
        <time>2020-09-13T14:32:21Z</time>
      </trkpt>
      <trkpt lat="51.147427009418607" lon="5.056924978271127">
        <ele>31.361000000000001</ele>
        <time>2020-09-13T14:32:55Z</time>
      </trkpt>
      <trkpt lat="51.148179033771157" lon="5.057513974606991">
        <ele>32.142000000000003</ele>
        <time>2020-09-13T14:34:00Z</time>
      </trkpt>
      <trkpt lat="51.148322029039264" lon="5.056906035169959">
        <ele>31.885999999999999</ele>
        <time>2020-09-13T14:34:38Z</time>
      </trkpt>
      <trkpt lat="51.148060010746121" lon="5.058261975646019">
        <ele>31.855</ele>
        <time>2020-09-13T14:37:24Z</time>
      </trkpt>
      <trkpt lat="51.148845981806517" lon="5.059818997979164">
        <ele>31.870000000000001</ele>
        <time>2020-09-13T14:39:08Z</time>
      </trkpt>
      <trkpt lat="51.14941100589931" lon="5.060589965432882">
        <ele>32.444000000000003</ele>
        <time>2020-09-13T14:43:03Z</time>
      </trkpt>
      <trkpt lat="51.149641005322337" lon="5.061521027237177">
        <ele>32.564999999999998</ele>
        <time>2020-09-13T14:43:55Z</time>
      </trkpt>
      <trkpt lat="51.149627007544041" lon="5.062578991055489">
        <ele>32.972999999999999</ele>
        <time>2020-09-13T14:44:55Z</time>
      </trkpt>
      <trkpt lat="51.151482006534934" lon="5.062548983842135">
        <ele>32.685000000000002</ele>
        <time>2020-09-13T14:46:21Z</time>
      </trkpt>
      <trkpt lat="51.151697002351284" lon="5.06273397244513">
        <ele>32.512999999999998</ele>
        <time>2020-09-13T14:46:33Z</time>
      </trkpt>
      <trkpt lat="51.151873022317886" lon="5.068225963041186">
        <ele>34.008000000000003</ele>
        <time>2020-09-13T14:48:45Z</time>
      </trkpt>
      <trkpt lat="51.155285965651274" lon="5.068132001906633">
        <ele>35.161999999999999</ele>
        <time>2020-09-13T14:50:47Z</time>
      </trkpt>
      <trkpt lat="51.155465003103018" lon="5.068408017978072">
        <ele>35.323</ele>
        <time>2020-09-13T14:51:01Z</time>
      </trkpt>
      <trkpt lat="51.155529962852597" lon="5.071382001042366">
        <ele>36.634</ele>
        <time>2020-09-13T14:53:57Z</time>
      </trkpt>
      <trkpt lat="51.15570698864758" lon="5.071532959118486">
        <ele>38.177999999999997</ele>
        <time>2020-09-13T14:54:15Z</time>
      </trkpt>
      <trkpt lat="51.156125999987125" lon="5.071489037945867">
        <ele>38.656999999999996</ele>
        <time>2020-09-13T14:54:51Z</time>
      </trkpt>
      <trkpt lat="51.157051026821136" lon="5.071700010448694">
        <ele>39.942</ele>
        <time>2020-09-13T14:56:08Z</time>
      </trkpt>
      <trkpt lat="51.15733802318573" lon="5.071616023778915">
        <ele>41.496000000000002</ele>
        <time>2020-09-13T14:56:39Z</time>
      </trkpt>
      <trkpt lat="51.157726021483541" lon="5.071724988520145">
        <ele>42.356999999999999</ele>
        <time>2020-09-13T14:57:15Z</time>
      </trkpt>
      <trkpt lat="51.158051993697882" lon="5.071499012410641">
        <ele>39.792000000000002</ele>
        <time>2020-09-13T14:57:54Z</time>
      </trkpt>
      <trkpt lat="51.15813497453928" lon="5.072251036763191">
        <ele>42.073</ele>
        <time>2020-09-13T14:58:30Z</time>
      </trkpt>
      <trkpt lat="51.157973036170006" lon="5.073161981999874">
        <ele>42.32</ele>
        <time>2020-09-13T14:59:27Z</time>
      </trkpt>
      <trkpt lat="51.159062013030052" lon="5.072404006496072">
        <ele>37.408000000000001</ele>
        <time>2020-09-13T15:01:44Z</time>
      </trkpt>
      <trkpt lat="51.159095959737897" lon="5.072552030906081">
        <ele>37.613999999999997</ele>
        <time>2020-09-13T15:01:50Z</time>
      </trkpt>
      <trkpt lat="51.159340040758252" lon="5.072192028164864">
        <ele>37.784999999999997</ele>
        <time>2020-09-13T15:02:25Z</time>
      </trkpt>
      <trkpt lat="51.161091020330787" lon="5.072010979056358">
        <ele>37.345999999999997</ele>
        <time>2020-09-13T15:04:45Z</time>
      </trkpt>
      <trkpt lat="51.160993035882711" lon="5.07035898976028">
        <ele>36.789999999999999</ele>
        <time>2020-09-13T15:06:09Z</time>
      </trkpt>
      <trkpt lat="51.161318002268672" lon="5.068327970802784">
        <ele>36.439</ele>
        <time>2020-09-13T15:08:18Z</time>
      </trkpt>
      <trkpt lat="51.162983989343047" lon="5.066117998212576">
        <ele>35.054000000000002</ele>
        <time>2020-09-13T15:11:42Z</time>
      </trkpt>
      <trkpt lat="51.162948030978441" lon="5.067648030817509">
        <ele>35.448</ele>
        <time>2020-09-13T15:13:03Z</time>
      </trkpt>
      <trkpt lat="51.163777001202106" lon="5.069544017314911">
        <ele>35.529000000000003</ele>
        <time>2020-09-13T15:15:26Z</time>
      </trkpt>
      <trkpt lat="51.164546962827444" lon="5.072083985432982">
        <ele>35.491999999999997</ele>
        <time>2020-09-13T15:18:03Z</time>
      </trkpt>
      <trkpt lat="51.165045015513897" lon="5.072867022827268">
        <ele>35.472999999999999</ele>
        <time>2020-09-13T15:18:53Z</time>
      </trkpt>
      <trkpt lat="51.165412981063128" lon="5.073923980817199">
        <ele>36.119999999999997</ele>
        <time>2020-09-13T15:20:00Z</time>
      </trkpt>
      <trkpt lat="51.165567962452769" lon="5.073734968900681">
        <ele>35.707999999999998</ele>
        <time>2020-09-13T15:20:17Z</time>
      </trkpt>
      <trkpt lat="51.165756974369287" lon="5.07379699498415">
        <ele>35.183999999999997</ele>
        <time>2020-09-13T15:20:32Z</time>
      </trkpt>
      <trkpt lat="51.16644999012351" lon="5.07459101267159">
        <ele>36.115000000000002</ele>
        <time>2020-09-13T15:21:39Z</time>
      </trkpt>
      <trkpt lat="51.167507031932473" lon="5.076218023896217">
        <ele>35.295999999999999</ele>
        <time>2020-09-13T15:23:40Z</time>
      </trkpt>
      <trkpt lat="51.168113965541124" lon="5.076370993629098">
        <ele>35.310000000000002</ele>
        <time>2020-09-13T15:24:27Z</time>
      </trkpt>
      <trkpt lat="51.168999010697007" lon="5.075491983443499">
        <ele>35.098999999999997</ele>
        <time>2020-09-13T15:25:50Z</time>
      </trkpt>
      <trkpt lat="51.16902600042522" lon="5.073476973921061">
        <ele>34.923999999999999</ele>
        <time>2020-09-13T15:27:23Z</time>
      </trkpt>
    </trkseg>
  </trk>

</gpx>